Terminal Aerodrome Forecast
Issued by NWS

Home | Current Version | Previous Version | Graphics & Text | Print | Product List | Glossary On
Versions: 1 2 3 4 5 6 7 8 9 10 11 12 13 14 15 16 17 18 19
015
FTUS41 KCLE 251017 AAA
TAFFDY
TAF AMD
KFDY 251017Z 2510/2606 23010KT P6SM SCT025 BKN035
      TEMPO 2511/2513 BKN028
     FM251400 25015G25KT P6SM BKN025
     FM251800 26020G30KT P6SM BKN025
     FM260000 27015G23KT P6SM BKN035=

USA.gov is the U.S. government's official web portal to all federal, state and local government web resources and services.